Terminal Aerodrome Forecast
Issued by NWS

Home | Current Version | Previous Version | Text Only | Print | Product List | Glossary Off
Versions: 1 2 3 4 5 6 7 8 9 10 11 12 13

000
FTUS43 KGRB 192300
TAFATW
TAF
KATW 192325Z 2000/2024 19008KT P6SM SCT050 BKN090
     FM200300 18004KT P6SM SCT050 BKN250
     FM200900 20003KT P6SM BKN100
     FM201600 21010KT P6SM SCT040 SCT100 BKN200=

USA.gov is the U.S. government's official web portal to all federal, state and local government web resources and services.